Time;durP1;ratioP1;P1;durP2;ratioP2;P2;SDS_P1;SDS_P2;PMS_P1;PMS_P2;Temp;Humidity;BMP_temperature;BMP_pressure;BME280_temperature;BME280_humidity;BME280_pressure;Samples;Min_cycle;Max_cycle;Signal;HPM_P1;HPM_P2
2021/12/06 00:01:31;;;;;;;51.10;32.30;;;;;;;0.70;90.29;95655.02;107445;1281;40631;-76
2021/12/06 00:04:05;;;;;;;47.80;31.80;;;;;;;0.71;90.22;95658.14;107587;1285;32501;-76
2021/12/06 00:06:37;;;;;;;56.00;32.40;;;;;;;0.71;90.17;95660.34;107451;1285;28384;-77
2021/12/06 00:09:10;;;;;;;55.50;32.60;;;;;;;0.72;89.95;95661.75;107436;1285;44977;-77
2021/12/06 00:11:39;;;;;;;49.00;31.30;;;;;;;0.72;90.13;95662.06;107422;1281;36752;-76
2021/12/06 00:14:09;;;;;;;48.50;31.50;;;;;;;0.72;90.03;95662.48;107470;1285;27897;-76
2021/12/06 00:16:38;;;;;;;48.20;31.20;;;;;;;0.72;90.05;95662.48;107551;1285;45774;-77
2021/12/06 00:19:07;;;;;;;50.10;30.20;;;;;;;0.72;89.80;95659.45;107473;1285;31736;-76
2021/12/06 00:21:36;;;;;;;50.80;32.10;;;;;;;0.72;89.80;95660.81;107407;1285;36071;-76
2021/12/06 00:24:05;;;;;;;51.00;31.10;;;;;;;0.74;89.73;95657.17;107436;1285;40391;-76
2021/12/06 00:26:35;;;;;;;47.50;29.40;;;;;;;0.74;89.80;95655.67;107453;1285;35567;-76
2021/12/06 00:29:04;;;;;;;53.00;31.10;;;;;;;0.70;89.93;95654.13;107508;1285;36136;-76
2021/12/06 00:31:36;;;;;;;51.90;30.70;;;;;;;0.67;89.71;95658.05;107483;1285;39049;-76
2021/12/06 00:34:09;;;;;;;50.90;31.40;;;;;;;0.67;90.01;95659.47;107439;1282;34308;-76
2021/12/06 00:36:50;;;;;;;47.10;29.80;;;;;;;0.68;90.02;95657.55;107437;1285;44558;-77
2021/12/06 00:39:20;;;;;;;52.30;31.30;;;;;;;0.70;89.86;95661.76;107392;1285;43052;-76
2021/12/06 00:41:49;;;;;;;56.10;34.00;;;;;;;0.69;90.06;95658.29;107490;1285;27613;-76
2021/12/06 00:44:18;;;;;;;57.70;33.30;;;;;;;0.67;90.11;95656.45;107414;1285;39489;-76
2021/12/06 00:46:47;;;;;;;58.40;35.90;;;;;;;0.67;89.91;95651.23;107417;1285;36324;-76
2021/12/06 00:49:16;;;;;;;59.90;35.40;;;;;;;0.67;90.08;95643.92;107457;1285;38662;-76
2021/12/06 00:51:45;;;;;;;60.00;33.90;;;;;;;0.67;90.12;95644.65;107463;1285;35151;-76
2021/12/06 00:54:15;;;;;;;59.60;35.00;;;;;;;0.67;90.15;95638.18;107443;1285;38319;-76
2021/12/06 00:56:44;;;;;;;57.00;33.70;;;;;;;0.67;90.25;95636.41;107532;1284;29237;-76
2021/12/06 00:59:13;;;;;;;58.30;33.20;;;;;;;0.68;90.11;95636.73;107434;1285;40895;-76
2021/12/06 01:01:41;;;;;;;53.20;34.20;;;;;;;0.69;89.87;95641.06;107431;1285;33015;-76
2021/12/06 01:04:10;;;;;;;57.10;33.60;;;;;;;0.69;89.90;95647.80;107437;1285;37387;-76
2021/12/06 01:06:39;;;;;;;60.60;35.30;;;;;;;0.70;89.98;95648.91;107474;1281;33032;-76
2021/12/06 01:09:08;;;;;;;67.10;37.50;;;;;;;0.64;89.89;95648.94;107432;1285;37112;-76
2021/12/06 01:11:40;;;;;;;58.40;35.10;;;;;;;0.52;89.94;95644.81;107418;1285;43646;-76
2021/12/06 01:14:08;;;;;;;59.40;34.80;;;;;;;0.45;90.24;95639.96;107440;1284;30952;-76
2021/12/06 01:16:38;;;;;;;56.70;34.40;;;;;;;0.44;90.49;95642.25;107429;1285;28738;-76
2021/12/06 01:19:07;;;;;;;55.20;35.30;;;;;;;0.47;90.57;95649.85;107502;1285;29104;-76
2021/12/06 01:21:45;;;;;;;57.90;33.90;;;;;;;0.46;90.93;95651.35;107431;1285;44048;-78
2021/12/06 01:24:17;;;;;;;57.20;35.60;;;;;;;0.44;90.83;95659.30;107455;1285;31185;-76
2021/12/06 01:27:08;;;;;;;66.70;38.60;;;;;;;0.44;91.04;95659.88;107509;1282;37130;-76
2021/12/06 01:30:06;;;;;;;60.10;34.30;;;;;;;0.47;91.07;95656.98;107541;1281;36200;-76
2021/12/06 01:33:04;;;;;;;75.70;40.40;;;;;;;0.43;91.03;95648.58;107451;1284;34789;-76
2021/12/06 01:41:09;;;;;;;61.10;34.80;;;;;;;0.41;91.24;95639.98;107434;1284;45883;-77
2021/12/06 01:43:58;;;;;;;60.30;35.40;;;;;;;0.44;91.10;95642.71;107499;1282;28888;-77
2021/12/06 01:46:27;;;;;;;57.40;35.20;;;;;;;0.48;91.00;95644.85;107547;1282;35185;-77
2021/12/06 01:48:56;;;;;;;61.70;36.70;;;;;;;0.51;91.19;95643.84;107453;1285;38252;-77
2021/12/06 01:51:25;;;;;;;61.70;37.70;;;;;;;0.54;90.96;95641.85;107404;1285;34403;-77
2021/12/06 01:53:54;;;;;;;54.70;34.80;;;;;;;0.55;90.85;95642.45;107456;1285;37187;-77
2021/12/06 01:56:23;;;;;;;60.10;36.00;;;;;;;0.57;91.13;95644.59;107415;1285;33059;-77
2021/12/06 01:58:52;;;;;;;57.30;34.90;;;;;;;0.59;90.63;95644.51;107463;1285;29450;-77
2021/12/06 02:01:22;;;;;;;62.10;35.90;;;;;;;0.58;90.94;95651.06;107493;1281;40062;-77
2021/12/06 02:03:51;;;;;;;58.80;35.40;;;;;;;0.52;91.03;95647.41;107403;1284;48406;-77
2021/12/06 02:06:20;;;;;;;56.70;34.00;;;;;;;0.45;90.89;95648.05;107431;1284;41476;-77
2021/12/06 02:08:49;;;;;;;58.90;34.30;;;;;;;0.42;91.12;95646.11;107436;1284;40965;-77
2021/12/06 02:11:18;;;;;;;62.00;36.50;;;;;;;0.42;91.11;95643.49;107429;1285;39636;-77
2021/12/06 02:13:53;;;;;;;61.20;34.80;;;;;;;0.45;91.05;95644.23;107407;1284;42011;-77
2021/12/06 02:16:30;;;;;;;59.90;34.90;;;;;;;0.44;91.58;95645.95;107409;1285;36067;-77
2021/12/06 02:19:03;;;;;;;58.60;34.40;;;;;;;0.41;91.40;95649.58;107600;1284;34312;-77
2021/12/06 02:21:37;;;;;;;61.10;33.20;;;;;;;0.39;91.63;95653.52;107510;1285;29225;-77
2021/12/06 02:24:09;;;;;;;55.30;32.40;;;;;;;0.38;91.92;95656.06;107520;1285;38333;-77
2021/12/06 02:26:41;;;;;;;59.00;33.60;;;;;;;0.38;91.85;95650.48;107449;1285;39483;-77
2021/12/06 02:29:11;;;;;;;59.70;32.30;;;;;;;0.40;91.79;95646.70;107433;1285;29880;-77
2021/12/06 02:31:43;;;;;;;49.90;31.60;;;;;;;0.44;91.72;95640.98;107409;1285;39366;-77
2021/12/06 02:34:12;;;;;;;56.20;31.10;;;;;;;0.47;91.66;95632.84;107399;1285;42998;-77
2021/12/06 02:36:42;;;;;;;54.60;33.50;;;;;;;0.48;91.73;95625.98;107441;1285;36265;-77
2021/12/06 02:39:18;;;;;;;55.40;34.40;;;;;;;0.52;91.53;95628.73;107464;1285;45712;-77
2021/12/06 02:41:49;;;;;;;60.80;33.70;;;;;;;0.53;91.65;95643.30;107407;1284;41155;-77
2021/12/06 02:44:18;;;;;;;58.80;32.00;;;;;;;0.54;91.58;95657.08;107470;1285;30590;-77
2021/12/06 02:46:49;;;;;;;61.90;35.00;;;;;;;0.53;91.53;95665.36;107441;1284;36332;-77
2021/12/06 02:49:18;;;;;;;64.50;36.10;;;;;;;0.51;91.45;95667.32;107471;1285;44500;-77
2021/12/06 02:51:47;;;;;;;59.70;35.60;;;;;;;0.52;91.35;95665.81;107470;1284;36360;-77
2021/12/06 02:54:16;;;;;;;53.80;32.40;;;;;;;0.53;91.26;95660.20;107533;1281;31845;-77
2021/12/06 02:56:54;;;;;;;53.00;32.20;;;;;;;0.54;91.24;95663.29;107478;1284;37993;-77
2021/12/06 02:59:25;;;;;;;51.60;29.90;;;;;;;0.54;91.44;95665.58;107457;1281;39763;-77
2021/12/06 03:01:57;;;;;;;47.40;29.10;;;;;;;0.51;91.74;95665.86;107415;1285;39540;-77
2021/12/06 03:04:26;;;;;;;51.80;32.00;;;;;;;0.46;91.71;95662.02;107519;1285;32316;-77
2021/12/06 03:06:55;;;;;;;55.60;32.40;;;;;;;0.45;91.66;95657.17;107496;1284;31125;-77
2021/12/06 03:09:29;;;;;;;54.90;31.40;;;;;;;0.44;91.65;95656.38;107439;1285;38718;-77
2021/12/06 03:12:00;;;;;;;54.80;32.00;;;;;;;0.43;91.50;95653.95;107501;1285;36363;-77
2021/12/06 03:14:32;;;;;;;54.50;32.70;;;;;;;0.42;91.33;95645.06;107384;1285;43215;-77
2021/12/06 03:17:03;;;;;;;55.50;31.20;;;;;;;0.44;91.54;95638.89;107507;1281;34477;-77
2021/12/06 03:19:33;;;;;;;48.80;29.90;;;;;;;0.44;91.49;95624.46;107523;1284;31481;-77
2021/12/06 03:22:02;;;;;;;49.10;30.10;;;;;;;0.45;91.57;95620.25;107567;1284;41323;-77
2021/12/06 03:24:31;;;;;;;51.20;30.60;;;;;;;0.46;91.77;95621.63;107523;1285;36321;-77
2021/12/06 03:27:00;;;;;;;51.40;29.90;;;;;;;0.46;91.82;95624.80;107519;1284;29331;-77
2021/12/06 03:29:29;;;;;;;54.40;31.70;;;;;;;0.41;91.57;95627.90;107576;1285;30762;-77
2021/12/06 03:31:58;;;;;;;54.70;30.60;;;;;;;0.33;91.84;95631.33;107456;1285;35173;-77
2021/12/06 03:34:27;;;;;;;55.60;32.20;;;;;;;0.29;91.84;95628.36;107446;1285;35880;-77
2021/12/06 03:36:57;;;;;;;49.90;30.10;;;;;;;0.30;92.08;95623.55;107449;1285;40804;-77
2021/12/06 03:39:28;;;;;;;48.10;30.10;;;;;;;0.33;91.79;95620.95;107428;1285;36072;-77
2021/12/06 03:42:01;;;;;;;54.50;30.80;;;;;;;0.35;91.85;95623.23;107422;1285;34867;-77
2021/12/06 03:44:30;;;;;;;55.30;33.00;;;;;;;0.36;91.84;95631.59;107554;1285;28131;-77
2021/12/06 03:47:10;;;;;;;53.90;31.20;;;;;;;0.38;92.03;95636.55;107488;1285;33700;-77
2021/12/06 03:49:39;;;;;;;61.60;33.90;;;;;;;0.40;91.72;95628.91;107467;1285;31065;-77
2021/12/06 03:52:09;;;;;;;55.50;32.70;;;;;;;0.42;91.92;95621.60;107469;1285;38465;-77
2021/12/06 03:54:40;;;;;;;59.40;33.60;;;;;;;0.44;91.77;95627.34;107492;1285;31723;-77
2021/12/06 03:57:09;;;;;;;56.50;32.70;;;;;;;0.45;91.89;95629.96;107542;1285;30972;-77
2021/12/06 03:59:41;;;;;;;61.40;32.70;;;;;;;0.46;91.87;95634.19;107439;1285;30727;-77
2021/12/06 04:02:11;;;;;;;59.70;35.30;;;;;;;0.46;91.72;95632.73;107504;1282;41242;-77
2021/12/06 04:04:40;;;;;;;61.70;34.30;;;;;;;0.44;91.88;95626.70;107506;1284;33545;-77
2021/12/06 04:07:10;;;;;;;59.60;34.70;;;;;;;0.43;91.83;95621.80;107474;1285;37193;-77
2021/12/06 04:09:39;;;;;;;64.30;34.80;;;;;;;0.44;91.92;95629.73;107484;1285;41277;-77
2021/12/06 04:12:10;;;;;;;56.90;33.30;;;;;;;0.45;91.98;95644.98;107493;1285;40922;-77
2021/12/06 04:14:40;;;;;;;63.20;35.00;;;;;;;0.47;91.89;95662.25;107440;1285;35158;-77
2021/12/06 04:17:09;;;;;;;57.20;33.10;;;;;;;0.46;92.04;95665.52;107478;1284;49205;-77
2021/12/06 04:19:38;;;;;;;59.50;33.90;;;;;;;0.39;92.08;95662.90;107443;1284;34077;-77
2021/12/06 04:22:07;;;;;;;67.10;35.30;;;;;;;0.37;91.95;95670.13;107513;1284;45084;-77
2021/12/06 04:24:36;;;;;;;60.00;33.60;;;;;;;0.34;92.18;95680.35;107528;1284;35811;-77
2021/12/06 04:27:13;;;;;;;59.80;32.60;;;;;;;0.30;92.21;95676.12;107543;1284;28957;-77
2021/12/06 04:29:44;;;;;;;67.50;36.40;;;;;;;0.20;92.79;95685.27;107421;1285;36090;-77
2021/12/06 04:32:14;;;;;;;68.60;37.80;;;;;;;0.11;92.81;95691.41;107691;1285;32947;-77
2021/12/06 04:34:42;;;;;;;65.30;36.20;;;;;;;0.08;92.79;95684.08;107514;1284;44734;-77
2021/12/06 04:37:11;;;;;;;64.30;36.00;;;;;;;0.06;93.25;95689.98;107469;1281;31653;-77
2021/12/06 04:39:41;;;;;;;67.50;34.60;;;;;;;0.04;93.19;95691.10;107493;1285;44333;-77
2021/12/06 04:42:10;;;;;;;65.10;35.30;;;;;;;0.06;93.48;95692.34;107529;1285;28807;-77
2021/12/06 04:44:39;;;;;;;62.20;34.30;;;;;;;0.10;93.33;95700.95;107501;1284;44829;-77
2021/12/06 04:47:08;;;;;;;60.80;32.20;;;;;;;0.13;93.40;95700.00;107506;1284;41116;-77
2021/12/06 04:49:37;;;;;;;70.40;37.70;;;;;;;0.11;93.24;95690.69;107490;1285;30811;-77
2021/12/06 04:52:09;;;;;;;61.50;35.00;;;;;;;0.12;93.52;95686.43;107445;1282;34612;-77
2021/12/06 04:54:41;;;;;;;70.00;35.80;;;;;;;0.16;93.47;95695.53;107439;1285;46392;-77
2021/12/06 04:57:16;;;;;;;55.90;32.80;;;;;;;0.19;93.48;95701.42;107533;1285;33470;-77
2021/12/06 04:59:50;;;;;;;58.30;30.80;;;;;;;0.21;93.22;95700.58;107565;1284;34778;-77
2021/12/06 05:02:25;;;;;;;58.40;29.90;;;;;;;0.23;93.26;95696.48;107555;1284;29439;-77
2021/12/06 05:04:57;;;;;;;51.80;29.00;;;;;;;0.26;93.46;95700.75;107578;1285;30579;-77
2021/12/06 05:07:28;;;;;;;53.90;29.30;;;;;;;0.26;93.44;95698.40;107479;1285;32498;-77
2021/12/06 05:09:57;;;;;;;53.20;28.50;;;;;;;0.26;93.07;95694.34;107478;1285;29731;-77
2021/12/06 05:12:30;;;;;;;51.80;29.10;;;;;;;0.24;93.32;95696.50;107486;1285;35341;-77
2021/12/06 05:14:59;;;;;;;49.80;26.90;;;;;;;0.23;93.38;95699.67;107486;1283;50930;-77
2021/12/06 05:17:29;;;;;;;46.80;26.80;;;;;;;0.24;93.54;95705.31;107483;1285;40488;-77
2021/12/06 05:19:58;;;;;;;46.80;26.50;;;;;;;0.24;93.45;95711.10;107487;1285;28961;-77
2021/12/06 05:22:28;;;;;;;46.60;25.10;;;;;;;0.26;93.57;95712.73;107512;1285;30975;-77
2021/12/06 05:24:57;;;;;;;46.30;25.70;;;;;;;0.28;93.32;95717.75;107454;1285;36888;-77
2021/12/06 05:27:29;;;;;;;47.50;26.20;;;;;;;0.32;93.37;95722.48;107408;1285;40675;-77
2021/12/06 05:30:02;;;;;;;47.20;26.20;;;;;;;0.34;93.30;95720.59;107532;1285;29831;-77
2021/12/06 05:32:34;;;;;;;43.70;26.00;;;;;;;0.36;93.23;95722.98;107571;1284;38007;-77
2021/12/06 05:35:07;;;;;;;47.00;25.20;;;;;;;0.38;93.43;95725.46;107577;1284;45682;-77
2021/12/06 05:37:39;;;;;;;48.50;26.20;;;;;;;0.38;93.23;95724.88;107527;1284;35236;-77
2021/12/06 05:40:12;;;;;;;52.30;27.00;;;;;;;0.36;93.18;95724.39;107463;1284;44499;-77
2021/12/06 05:42:41;;;;;;;56.20;29.10;;;;;;;0.33;93.43;95724.80;107596;1285;29882;-77
2021/12/06 05:45:12;;;;;;;49.50;29.60;;;;;;;0.26;93.19;95727.76;107535;1284;40423;-77
2021/12/06 05:47:40;;;;;;;;;;;;;;;0.18;93.94;95720.64;107660;1285;33930;-77
2021/12/06 05:50:10;;;;;;;56.50;28.50;;;;;;;0.14;93.89;95721.30;107474;1285;32093;-77
2021/12/06 05:52:39;;;;;;;52.10;29.60;;;;;;;0.12;93.65;95729.48;107535;1285;41459;-77
2021/12/06 05:55:11;;;;;;;53.80;32.00;;;;;;;0.06;93.89;95731.98;107525;1284;41255;-77
2021/12/06 05:57:40;;;;;;;55.10;31.90;;;;;;;0.00;94.20;95736.67;107521;1284;35715;-77
2021/12/06 06:00:14;;;;;;;59.10;32.70;;;;;;;-0.05;94.13;95735.77;107517;1285;40362;-77
2021/12/06 06:02:44;;;;;;;62.10;33.00;;;;;;;-0.03;94.59;95736.30;107541;1285;33135;-77
2021/12/06 06:05:14;;;;;;;64.50;34.00;;;;;;;-0.01;94.39;95739.89;107510;1285;42313;-77
2021/12/06 06:07:43;;;;;;;56.50;31.70;;;;;;;0.04;94.58;95739.73;107499;1285;31148;-76
2021/12/06 06:10:12;;;;;;;54.60;30.40;;;;;;;0.09;94.49;95739.34;107491;1285;36575;-76
2021/12/06 06:12:42;;;;;;;57.20;32.00;;;;;;;0.12;94.46;95745.95;107498;1284;37571;-76
2021/12/06 06:15:11;;;;;;;55.10;30.20;;;;;;;0.14;94.58;95751.38;107456;1285;33926;-76
2021/12/06 06:17:41;;;;;;;56.70;31.60;;;;;;;0.18;94.59;95754.27;107506;1284;35669;-76
2021/12/06 06:20:14;;;;;;;68.80;36.90;;;;;;;0.20;94.27;95751.86;107524;1284;30821;-76
2021/12/06 06:22:43;;;;;;;60.40;32.00;;;;;;;0.18;94.28;95748.48;107545;1285;36506;-76
2021/12/06 06:25:14;;;;;;;59.80;32.10;;;;;;;0.21;94.57;95747.22;107469;1285;41830;-76
2021/12/06 06:27:41;;;;;;;;;;;;;;;0.22;94.54;95757.93;107547;1284;42218;-76
2021/12/06 06:30:13;;;;;;;51.30;27.50;;;;;;;0.19;94.26;95760.16;107494;1285;31573;-76
2021/12/06 06:32:44;;;;;;;51.90;29.70;;;;;;;0.20;94.33;95766.17;107492;1285;40272;-76
2021/12/06 06:35:14;;;;;;;52.80;29.90;;;;;;;0.22;94.35;95773.98;107566;1284;33377;-76
2021/12/06 06:37:42;;;;;;;;;;;;;;;0.24;94.29;95779.48;107467;1285;42068;-76
2021/12/06 06:40:14;;;;;;;61.60;30.90;;;;;;;0.23;94.09;95781.30;107522;1284;43575;-76
2021/12/06 06:42:43;;;;;;;55.50;32.90;;;;;;;0.21;94.29;95783.19;107492;1285;32824;-76
2021/12/06 06:45:14;;;;;;;63.50;32.30;;;;;;;0.24;94.54;95783.75;107476;1285;38069;-76
2021/12/06 06:47:44;;;;;;;59.70;34.30;;;;;;;0.24;94.51;95785.07;107501;1285;31382;-76
2021/12/06 06:50:13;;;;;;;55.20;31.30;;;;;;;0.18;94.37;95788.30;107476;1285;42668;-77
2021/12/06 06:52:42;;;;;;;54.80;31.00;;;;;;;0.13;94.31;95792.33;107537;1284;41361;-77
2021/12/06 06:55:13;;;;;;;56.50;29.90;;;;;;;0.12;94.66;95790.46;107459;1284;34066;-76
2021/12/06 06:57:43;;;;;;;53.80;31.00;;;;;;;0.12;94.67;95799.16;107500;1285;37607;-76
2021/12/06 07:00:15;;;;;;;53.80;30.00;;;;;;;0.16;94.42;95800.67;107450;1285;39285;-76
2021/12/06 07:02:44;;;;;;;59.00;31.90;;;;;;;0.21;94.57;95806.13;107514;1285;32013;-76
2021/12/06 07:05:14;;;;;;;57.70;31.80;;;;;;;0.25;94.59;95804.47;107491;1285;34736;-76
2021/12/06 07:07:43;;;;;;;38.20;22.50;;;;;;;0.28;94.59;95809.45;107502;1285;33079;-76
2021/12/06 07:10:13;;;;;;;67.20;35.70;;;;;;;0.33;94.62;95806.40;107507;1285;39647;-76
2021/12/06 07:12:45;;;;;;;75.10;39.00;;;;;;;0.37;94.52;95802.56;107522;1284;37055;-76
2021/12/06 07:15:17;;;;;;;61.50;35.20;;;;;;;0.42;94.36;95803.80;107466;1285;29815;-76
2021/12/06 07:17:47;;;;;;;61.50;33.50;;;;;;;0.45;94.46;95802.56;107480;1284;41629;-76
2021/12/06 07:20:16;;;;;;;53.80;31.80;;;;;;;0.48;94.22;95798.44;107510;1285;26898;-76
2021/12/06 07:22:47;;;;;;;61.70;34.60;;;;;;;0.52;94.50;95798.34;107434;1284;47129;-76
2021/12/06 07:25:17;;;;;;;59.40;33.70;;;;;;;0.57;93.95;95797.65;107521;1285;31355;-76
2021/12/06 07:27:47;;;;;;;59.50;33.20;;;;;;;0.59;94.31;95799.00;107564;1284;31584;-76
2021/12/06 07:30:18;;;;;;;55.50;34.00;;;;;;;0.57;93.87;95805.54;107450;1285;37478;-76
2021/12/06 07:32:47;;;;;;;55.80;31.10;;;;;;;0.50;93.84;95806.55;107471;1275;198678;-76
2021/12/06 07:35:16;;;;;;;55.80;33.20;;;;;;;0.44;93.79;95811.35;107498;1284;29530;-76
2021/12/06 07:37:45;;;;;;;57.20;31.50;;;;;;;0.46;93.93;95812.79;107478;1284;39356;-76
2021/12/06 07:40:16;;;;;;;56.10;32.40;;;;;;;0.43;93.97;95812.44;107434;1284;38884;-76
2021/12/06 07:42:46;;;;;;;59.90;32.10;;;;;;;0.41;94.08;95813.37;107579;1284;37239;-76
2021/12/06 07:45:16;;;;;;;53.20;29.70;;;;;;;0.42;93.96;95813.34;107458;1285;40860;-76
2021/12/06 07:47:45;;;;;;;38.70;21.20;;;;;;;0.40;94.00;95814.90;107541;1284;32943;-76
2021/12/06 07:50:16;;;;;;;56.50;31.60;;;;;;;0.42;94.18;95815.59;107453;1285;35046;-76
2021/12/06 07:52:46;;;;;;;42.50;25.30;;;;;;;0.42;94.35;95819.70;107466;1285;40293;-76
2021/12/06 07:55:17;;;;;;;27.70;17.50;;;;;;;0.40;94.06;95817.62;107495;1285;41215;-76
2021/12/06 07:57:47;;;;;;;46.10;28.20;;;;;;;0.40;94.22;95816.21;107589;1284;34358;-76
2021/12/06 08:00:19;;;;;;;45.80;26.30;;;;;;;0.42;94.31;95810.16;107480;1285;32301;-76
2021/12/06 08:02:49;;;;;;;31.30;19.20;;;;;;;0.42;94.15;95813.81;107548;1285;37221;-76
2021/12/06 08:05:30;;;;;;;38.10;23.30;;;;;;;0.40;93.94;95819.14;107510;1285;28411;-76
2021/12/06 08:08:01;;;;;;;44.10;24.80;;;;;;;0.42;94.24;95817.66;107475;1285;36848;-76
2021/12/06 08:10:32;;;;;;;33.70;19.60;;;;;;;0.43;94.28;95816.55;107643;1284;39004;-76
2021/12/06 08:13:04;;;;;;;31.50;18.70;;;;;;;0.44;93.97;95819.64;107550;1285;28465;-76
2021/12/06 08:15:34;;;;;;;27.40;17.00;;;;;;;0.43;94.09;95816.01;107551;1285;36721;-76
2021/12/06 08:18:03;;;;;;;30.50;17.60;;;;;;;0.43;93.89;95820.67;107575;1285;27507;-76
2021/12/06 08:20:32;;;;;;;30.50;16.70;;;;;;;0.45;93.83;95819.14;107605;1284;30165;-76
2021/12/06 08:23:01;;;;;;;30.50;18.00;;;;;;;0.45;94.10;95820.91;107527;1285;35305;-76
2021/12/06 08:25:30;;;;;;;28.10;16.80;;;;;;;0.43;94.22;95826.44;107414;1281;41119;-76
2021/12/06 08:27:59;;;;;;;27.50;16.60;;;;;;;0.39;94.09;95828.71;107500;1285;43846;-76
2021/12/06 08:30:29;;;;;;;30.00;17.00;;;;;;;0.38;94.22;95829.98;107499;1285;45148;-76
2021/12/06 08:33:01;;;;;;;24.80;15.60;;;;;;;0.36;94.21;95826.94;107568;1285;36517;-76
2021/12/06 08:35:31;;;;;;;28.50;17.60;;;;;;;0.35;94.08;95827.81;107478;1285;36476;-75
2021/12/06 08:38:01;;;;;;;25.90;16.20;;;;;;;0.35;94.27;95834.59;107573;1285;28719;-75
2021/12/06 08:40:31;;;;;;;22.60;14.00;;;;;;;0.35;94.28;95836.36;107475;1284;36130;-76
2021/12/06 08:42:59;;;;;;;;;;;;;;;0.34;94.57;95841.15;107585;1285;33270;-76
2021/12/06 08:45:29;;;;;;;28.30;15.50;;;;;;;0.34;94.30;95840.83;107553;1285;30255;-76
2021/12/06 08:47:59;;;;;;;29.00;15.90;;;;;;;0.34;94.26;95843.23;107521;1285;38513;-76
2021/12/06 08:50:30;;;;;;;24.90;15.60;;;;;;;0.35;94.44;95845.23;107555;1285;34924;-76
2021/12/06 08:52:59;;;;;;;28.20;14.10;;;;;;;0.36;94.35;95844.63;107554;1285;29336;-76
2021/12/06 08:55:27;;;;;;;24.20;14.90;;;;;;;0.37;94.51;95846.20;107590;1285;42968;-76
2021/12/06 08:57:56;;;;;;;20.20;13.50;;;;;;;0.37;94.15;95846.56;107567;1285;36520;-76
2021/12/06 09:00:28;;;;;;;20.90;12.70;;;;;;;0.37;94.10;95851.21;107457;1284;39650;-76
2021/12/06 09:02:57;;;;;;;23.60;15.10;;;;;;;0.39;94.54;95849.98;107457;1285;41914;-76
2021/12/06 09:05:32;;;;;;;21.70;13.50;;;;;;;0.41;94.15;95854.66;107548;1285;33038;-76
2021/12/06 09:08:02;;;;;;;21.80;13.40;;;;;;;0.45;94.14;95859.19;107545;1284;43080;-76
2021/12/06 09:10:31;;;;;;;24.40;13.80;;;;;;;0.46;94.15;95860.62;107527;1282;40744;-76
2021/12/06 09:13:00;;;;;;;21.90;13.20;;;;;;;0.47;93.98;95860.10;107548;1285;42544;-76
2021/12/06 09:15:29;;;;;;;20.90;12.50;;;;;;;0.47;93.90;95865.70;107445;1285;39272;-76
2021/12/06 09:17:59;;;;;;;24.10;13.60;;;;;;;0.48;94.15;95863.36;107490;1284;34696;-76
2021/12/06 09:20:31;;;;;;;20.70;12.10;;;;;;;0.50;93.97;95860.21;107429;1285;48311;-76
2021/12/06 09:23:00;;;;;;;21.00;13.10;;;;;;;0.52;93.66;95862.17;107457;1284;30306;-76
2021/12/06 09:25:30;;;;;;;24.30;13.10;;;;;;;0.54;93.74;95862.63;107496;1284;39912;-76
2021/12/06 09:27:59;;;;;;;21.90;13.30;;;;;;;0.55;93.39;95861.98;107557;1284;46227;-76
2021/12/06 09:30:31;;;;;;;19.90;12.30;;;;;;;0.56;93.84;95860.29;107575;1284;35026;-76
2021/12/06 09:33:03;;;;;;;20.20;12.40;;;;;;;0.60;93.83;95862.23;107517;1284;40107;-77
2021/12/06 09:35:34;;;;;;;23.60;13.60;;;;;;;0.66;93.87;95860.17;107661;1284;33320;-76
2021/12/06 09:38:05;;;;;;;22.90;13.40;;;;;;;0.66;93.70;95864.20;107589;1284;29184;-76
2021/12/06 09:40:36;;;;;;;21.20;13.40;;;;;;;0.65;93.52;95864.77;107508;1284;38467;-76
2021/12/06 09:43:08;;;;;;;21.10;13.10;;;;;;;0.64;93.35;95861.77;107545;1284;54396;-76
2021/12/06 09:45:38;;;;;;;20.40;12.40;;;;;;;0.64;93.24;95862.81;107468;1284;38546;-76
2021/12/06 09:48:08;;;;;;;21.40;12.10;;;;;;;0.64;93.44;95864.75;107496;1284;38595;-77
2021/12/06 09:50:41;;;;;;;22.20;11.30;;;;;;;0.62;93.16;95861.17;107438;1285;34083;-77
2021/12/06 09:53:12;;;;;;;22.80;12.90;;;;;;;0.58;93.23;95861.21;107521;1284;40526;-77
2021/12/06 09:55:43;;;;;;;18.90;11.70;;;;;;;0.56;93.26;95864.87;107472;1284;32573;-76
2021/12/06 09:58:13;;;;;;;20.20;10.90;;;;;;;0.54;93.46;95859.65;107492;1284;42679;-77
2021/12/06 10:00:44;;;;;;;19.10;11.70;;;;;;;0.54;93.55;95863.09;107545;1284;33565;-76
2021/12/06 10:03:22;;;;;;;20.70;12.90;;;;;;;0.53;93.47;95864.07;107474;1284;37415;-76
2021/12/06 10:05:52;;;;;;;20.20;11.20;;;;;;;0.55;93.41;95854.41;107496;1284;33971;-76
2021/12/06 10:08:21;;;;;;;18.70;11.90;;;;;;;0.55;93.68;95846.70;107494;1282;38511;-76
2021/12/06 10:10:50;;;;;;;19.20;10.10;;;;;;;0.59;93.73;95845.89;107550;1284;29596;-76
2021/12/06 10:13:20;;;;;;;17.50;10.50;;;;;;;0.58;93.50;95845.04;107462;1281;33665;-77
2021/12/06 10:15:51;;;;;;;19.50;10.70;;;;;;;0.55;93.83;95840.85;107540;1284;31717;-76
2021/12/06 10:18:20;;;;;;;17.40;9.60;;;;;;;0.56;94.16;95840.91;107521;1284;43373;-76
2021/12/06 10:20:49;;;;;;;18.70;9.50;;;;;;;0.58;93.85;95840.14;107518;1284;28917;-76
2021/12/06 10:23:19;;;;;;;18.70;9.50;;;;;;;0.60;93.87;95841.56;107458;1284;38686;-77
2021/12/06 10:25:55;;;;;;;18.80;10.90;;;;;;;0.58;93.77;95848.90;107581;1284;36923;-77
2021/12/06 10:28:29;;;;;;;15.80;8.50;;;;;;;0.58;93.80;95843.48;107454;1285;37015;-76
2021/12/06 10:31:02;;;;;;;16.80;8.60;;;;;;;0.60;93.96;95842.25;107485;1284;38422;-76
2021/12/06 10:33:33;;;;;;;15.80;7.80;;;;;;;0.59;93.41;95845.67;107556;1284;36453;-76
2021/12/06 10:36:06;;;;;;;13.10;7.00;;;;;;;0.57;93.51;95844.35;107725;1284;30578;-76
2021/12/06 10:38:38;;;;;;;13.60;7.10;;;;;;;0.57;93.31;95842.46;107555;1284;40711;-76
2021/12/06 10:41:09;;;;;;;12.00;6.80;;;;;;;0.54;93.22;95846.67;107541;1284;37855;-76
2021/12/06 10:43:40;;;;;;;15.80;7.60;;;;;;;0.53;93.66;95849.27;107497;1284;31612;-76
2021/12/06 10:46:10;;;;;;;10.20;5.70;;;;;;;0.52;93.80;95858.32;107429;1284;37024;-76
2021/12/06 10:48:40;;;;;;;10.00;6.10;;;;;;;0.52;93.69;95861.92;107452;1284;38104;-76
2021/12/06 10:51:19;;;;;;;11.10;6.40;;;;;;;0.51;93.79;95862.20;107483;1284;39607;-76
2021/12/06 10:53:58;;;;;;;11.90;6.00;;;;;;;0.48;93.61;95863.73;107520;1284;31812;-76
2021/12/06 10:56:38;;;;;;;10.10;6.00;;;;;;;0.47;93.66;95864.75;107555;1282;34638;-76
2021/12/06 10:59:13;;;;;;;9.10;6.00;;;;;;;0.45;93.58;95859.18;107431;1284;36746;-76
2021/12/06 11:01:42;;;;;;;9.60;6.50;;;;;;;0.45;93.73;95862.52;107492;1285;38215;-76
2021/12/06 11:04:14;;;;;;;13.30;6.50;;;;;;;0.48;93.38;95862.15;107453;1285;32275;-76
2021/12/06 11:06:45;;;;;;;10.60;6.80;;;;;;;0.48;93.36;95862.27;107452;1285;38149;-76
2021/12/06 11:09:17;;;;;;;10.90;6.90;;;;;;;0.46;93.29;95861.83;107536;1284;39630;-76
2021/12/06 11:11:49;;;;;;;10.20;6.60;;;;;;;0.46;93.27;95861.66;107497;1284;37943;-76
2021/12/06 11:14:22;;;;;;;10.60;7.10;;;;;;;0.46;93.40;95863.55;107530;1284;37456;-76
2021/12/06 11:16:56;;;;;;;10.40;6.80;;;;;;;0.47;93.46;95864.45;107567;1284;33121;-76
2021/12/06 11:19:28;;;;;;;15.00;7.30;;;;;;;0.48;93.30;95863.73;107526;1284;41112;-76
2021/12/06 11:21:59;;;;;;;11.70;7.90;;;;;;;0.46;93.52;95866.20;107455;1284;35037;-76
2021/12/06 11:24:30;;;;;;;12.40;7.10;;;;;;;0.46;93.73;95862.87;107458;1285;35996;-76
2021/12/06 11:27:03;;;;;;;10.60;6.90;;;;;;;0.45;93.40;95867.27;107495;1284;34436;-76
2021/12/06 11:29:35;;;;;;;11.50;6.30;;;;;;;0.42;93.47;95863.30;107524;1282;32522;-76
2021/12/06 11:32:09;;;;;;;13.20;7.00;;;;;;;0.39;93.34;95862.04;107579;1284;33836;-76
2021/12/06 11:34:43;;;;;;;10.30;6.80;;;;;;;0.37;93.27;95857.36;107428;1284;37435;-76
2021/12/06 11:37:18;;;;;;;12.30;6.60;;;;;;;0.37;93.47;95855.84;107514;1281;42042;-76
2021/12/06 11:39:50;;;;;;;11.90;6.50;;;;;;;0.37;93.49;95857.52;107528;1284;32230;-77
2021/12/06 11:42:19;;;;;;;9.50;6.20;;;;;;;0.37;93.41;95857.73;107464;1284;32606;-76